Back to Top

Language: 

My Weather Underground Personal Weather Station Historical Data with Graphs...

Delerius Weather Station Historical Data
Daily Summary for September 23, 2017 Units:  Metric    English   Both
« Previous Day
Next Day »
Daily Weekly Monthly Yearly Custom
  High: Low: Average:
Temperature: 16.6 °C 11.2 °C 14.2 °C
Dew Point: 14.3 °C 10.2 °C 12.5 °C
Humidity: 96 % 82 % 89 %
Wind Speed: 14.5 km/h 0 km/h 7.1 km/h
Wind Gust: 25.7 km/h - -
Wind:- - SSE
Pressure: 1020.2 hPa 1018.5 hPa -
Precipitation: 0 mm    
Historical Graphs
 
 
Tabular Data for September 23, 2017
Time Temperature Dew Point Pressure Wind Wind Speed Wind Gust Humidity Rainfall Rate (Hourly) solar Conditions
00:02 12.9 °C 11.3 °C 1018.8 hPa SSW 14.5 km/h 22.5 km/h 90 % 0 mm 0 W/m2
00:07 12.9 °C 11.3 °C 1018.8 hPa SSW 14.5 km/h 22.5 km/h 90 % 0 mm 0 W/m2
00:12 12.9 °C 11.3 °C 1018.8 hPa SSW 12.9 km/h 22.5 km/h 90 % 0 mm 0 W/m2
00:17 12.9 °C 11.3 °C 1018.8 hPa SSW 12.9 km/h 22.5 km/h 90 % 0 mm 0 W/m2
00:22 12.9 °C 11.3 °C 1018.8 hPa SSW 12.9 km/h 25.7 km/h 90 % 0 mm 0 W/m2
00:27 12.9 °C 11.3 °C 1018.8 hPa SSW 11.3 km/h 25.7 km/h 90 % 0 mm 0 W/m2
00:32 12.8 °C 11.2 °C 1018.8 hPa South 11.3 km/h 19.3 km/h 90 % 0 mm 0 W/m2
00:34 12.8 °C 11.2 °C 1018.8 hPa South 12.9 km/h 20.9 km/h 90 % 0 mm 0 W/m2
00:39 12.9 °C 11.4 °C 1018.8 hPa SSW 14.5 km/h 24.1 km/h 91 % 0 mm 0 W/m2
00:44 12.9 °C 11.4 °C 1018.8 hPa SSW 14.5 km/h 24.1 km/h 91 % 0 mm 0 W/m2
00:49 12.9 °C 11.3 °C 1018.8 hPa SSW 12.9 km/h 22.5 km/h 90 % 0 mm 0 W/m2
00:54 12.9 °C 11.3 °C 1018.8 hPa SSW 12.9 km/h 20.9 km/h 90 % 0 mm 0 W/m2
00:59 12.9 °C 11.3 °C 1018.8 hPa SSW 12.9 km/h 20.9 km/h 90 % 0 mm 0 W/m2
01:04 12.9 °C 11.3 °C 1018.5 hPa SSW 12.9 km/h 20.9 km/h 90 % 0 mm 0 W/m2
01:09 12.8 °C 11.4 °C 1018.8 hPa SSW 11.3 km/h 20.9 km/h 91 % 0 mm 0 W/m2
01:15 12.9 °C 11.4 °C 1018.5 hPa SSW 11.3 km/h 20.9 km/h 91 % 0 mm 0 W/m2
01:20 12.8 °C 11.4 °C 1018.5 hPa South 11.3 km/h 20.9 km/h 91 % 0 mm 0 W/m2
01:25 12.8 °C 11.4 °C 1018.8 hPa South 9.7 km/h 17.7 km/h 91 % 0 mm 0 W/m2
01:30 12.8 °C 11.4 °C 1018.8 hPa South 9.7 km/h 14.5 km/h 91 % 0 mm 0 W/m2
01:35 12.8 °C 11.4 °C 1018.8 hPa South 8 km/h 16.1 km/h 91 % 0 mm 0 W/m2
01:40 12.8 °C 11.4 °C 1018.8 hPa South 8 km/h 16.1 km/h 91 % 0 mm 0 W/m2
01:45 12.9 °C 11.4 °C 1018.8 hPa South 9.7 km/h 17.7 km/h 91 % 0 mm 0 W/m2
01:50 12.9 °C 11.4 °C 1018.8 hPa South 9.7 km/h 17.7 km/h 91 % 0 mm 0 W/m2
01:55 12.9 °C 11.4 °C 1018.8 hPa South 8 km/h 14.5 km/h 91 % 0 mm 0 W/m2
02:00 12.8 °C 11.4 °C 1018.8 hPa SSE 6.4 km/h 14.5 km/h 91 % 0 mm 0 W/m2
02:05 12.8 °C 11.4 °C 1018.8 hPa SSE 6.4 km/h 11.3 km/h 91 % 0 mm 0 W/m2
02:10 12.7 °C 11.3 °C 1018.8 hPa SSE 4.8 km/h 11.3 km/h 91 % 0 mm 0 W/m2
02:15 12.7 °C 11.4 °C 1018.8 hPa SSE 6.4 km/h 12.9 km/h 92 % 0 mm 0 W/m2
02:20 12.7 °C 11.4 °C 1018.8 hPa SSE 8 km/h 14.5 km/h 92 % 0 mm 0 W/m2
02:25 12.7 °C 11.4 °C 1018.8 hPa South 8 km/h 14.5 km/h 92 % 0 mm 0 W/m2
02:30 12.7 °C 11.4 °C 1018.5 hPa South 8 km/h 14.5 km/h 92 % 0 mm 0 W/m2
02:35 12.8 °C 11.6 °C 1018.5 hPa South 8 km/h 14.5 km/h 92 % 0 mm 0 W/m2
02:40 12.8 °C 11.6 °C 1018.5 hPa South 8 km/h 14.5 km/h 92 % 0 mm 0 W/m2
02:45 12.8 °C 11.6 °C 1018.8 hPa South 8 km/h 14.5 km/h 92 % 0 mm 0 W/m2
02:50 12.8 °C 11.6 °C 1018.8 hPa South 8 km/h 16.1 km/h 92 % 0 mm 0 W/m2
02:55 12.9 °C 11.6 °C 1018.8 hPa South 9.7 km/h 16.1 km/h 92 % 0 mm 0 W/m2
03:00 12.9 °C 11.6 °C 1018.8 hPa South 9.7 km/h 16.1 km/h 92 % 0 mm 0 W/m2
03:05 13 °C 11.7 °C 1018.8 hPa South 6.4 km/h 16.1 km/h 92 % 0 mm 0 W/m2
03:10 13 °C 11.7 °C 1018.8 hPa South 4.8 km/h 9.7 km/h 92 % 0 mm 0 W/m2
03:15 13 °C 11.7 °C 1018.8 hPa South 4.8 km/h 12.9 km/h 92 % 0 mm 0 W/m2
03:20 13 °C 11.6 °C 1018.5 hPa SSE 4.8 km/h 12.9 km/h 91 % 0 mm 0 W/m2
03:25 12.9 °C 11.4 °C 1018.8 hPa SSE 4.8 km/h 11.3 km/h 91 % 0 mm 0 W/m2
03:30 12.9 °C 11.4 °C 1018.5 hPa SSE 4.8 km/h 11.3 km/h 91 % 0 mm 0 W/m2
03:35 12.8 °C 11.6 °C 1018.5 hPa SSE 4.8 km/h 11.3 km/h 92 % 0 mm 0 W/m2
03:40 12.7 °C 11.4 °C 1018.5 hPa South 6.4 km/h 11.3 km/h 92 % 0 mm 0 W/m2
03:45 12.7 °C 11.4 °C 1018.5 hPa South 6.4 km/h 11.3 km/h 92 % 0 mm 0 W/m2
03:50 12.6 °C 11.3 °C 1018.5 hPa SSE 6.4 km/h 11.3 km/h 92 % 0 mm 0 W/m2
03:55 12.6 °C 11.3 °C 1018.5 hPa SSE 3.2 km/h 9.7 km/h 92 % 0 mm 0 W/m2
04:00 12.4 °C 11.1 °C 1018.5 hPa SSE 1.6 km/h 8 km/h 92 % 0 mm 0 W/m2
04:05 12.3 °C 11.1 °C 1018.5 hPa SSE 1.6 km/h 9.7 km/h 92 % 0 mm 0 W/m2
04:11 12.2 °C 10.9 °C 1018.5 hPa SE 1.6 km/h 9.7 km/h 92 % 0 mm 0 W/m2
04:16 12.1 °C 10.8 °C 1018.5 hPa Calm   6.4 km/h 92 % 0 mm 0 W/m2
04:21 12 °C 10.7 °C 1018.5 hPa Calm   1.6 km/h 92 % 0 mm 0 W/m2
04:26 11.9 °C 10.8 °C 1018.5 hPa Calm   1.6 km/h 93 % 0 mm 0 W/m2
04:31 12 °C 10.9 °C 1018.5 hPa Calm   3.2 km/h 93 % 0 mm 0 W/m2
04:36 11.9 °C 10.8 °C 1018.8 hPa Calm   3.2 km/h 93 % 0 mm 0 W/m2
04:41 11.8 °C 10.7 °C 1018.5 hPa Calm   3.2 km/h 93 % 0 mm 0 W/m2
04:46 11.7 °C 10.6 °C 1018.5 hPa Calm   6.4 km/h 93 % 0 mm 0 W/m2
04:51 11.8 °C 10.9 °C 1018.5 hPa ESE 1.6 km/h 6.4 km/h 94 % 0 mm 0 W/m2
04:56 11.7 °C 10.8 °C 1018.5 hPa ESE 1.6 km/h 6.4 km/h 94 % 0 mm 0 W/m2
05:01 11.6 °C 10.5 °C 1018.5 hPa Calm   1.6 km/h 93 % 0 mm 0 W/m2
05:06 11.4 °C 10.3 °C 1018.5 hPa Calm   1.6 km/h 93 % 0 mm 0 W/m2
05:11 11.3 °C 10.2 °C 1018.5 hPa Calm   4.8 km/h 93 % 0 mm 0 W/m2
05:16 11.3 °C 10.4 °C 1018.5 hPa Calm   4.8 km/h 94 % 0 mm 0 W/m2
05:21 11.2 °C 10.3 °C 1018.5 hPa Calm   3.2 km/h 94 % 0 mm 0 W/m2
05:26 11.2 °C 10.3 °C 1018.5 hPa WSW 1.6 km/h 9.7 km/h 94 % 0 mm 0 W/m2
05:31 11.2 °C 10.3 °C 1018.8 hPa WSW 3.2 km/h 11.3 km/h 94 % 0 mm 0 W/m2
05:36 11.3 °C 10.6 °C 1018.8 hPa WSW 3.2 km/h 11.3 km/h 95 % 0 mm 0 W/m2
05:41 11.3 °C 10.6 °C 1018.8 hPa SW 1.6 km/h 9.7 km/h 95 % 0 mm 0 W/m2
05:47 11.3 °C 10.4 °C 1018.8 hPa Calm   1.6 km/h 94 % 0 mm 0 W/m2
05:52 11.2 °C 10.3 °C 1018.8 hPa Calm     94 % 0 mm 0 W/m2
05:57 11.2 °C 10.3 °C 1018.8 hPa Calm   6.4 km/h 94 % 0 mm 0 W/m2
06:02 11.2 °C 10.4 °C 1018.8 hPa SSE 1.6 km/h 6.4 km/h 95 % 0 mm 0 W/m2
06:07 11.2 °C 10.4 °C 1018.8 hPa SE 3.2 km/h 8 km/h 95 % 0 mm 0 W/m2
06:12 11.3 °C 10.6 °C 1018.8 hPa ESE 3.2 km/h 8 km/h 95 % 0 mm 0 W/m2
06:17 11.3 °C 10.6 °C 1019.2 hPa ESE 3.2 km/h 8 km/h 95 % 0 mm 0 W/m2
06:22 11.3 °C 10.6 °C 1019.2 hPa ESE 3.2 km/h 8 km/h 95 % 0 mm 0 W/m2
06:27 11.3 °C 10.6 °C 1019.2 hPa ESE 3.2 km/h 9.7 km/h 95 % 0 mm 0 W/m2
06:32 11.4 °C 10.6 °C 1019.2 hPa ESE 4.8 km/h 9.7 km/h 95 % 0 mm 0 W/m2
06:37 11.4 °C 10.6 °C 1019.2 hPa ESE 4.8 km/h 9.7 km/h 95 % 0 mm 0 W/m2
06:42 11.5 °C 10.7 °C 1019.2 hPa ESE 6.4 km/h 9.7 km/h 95 % 0 mm 0 W/m2
06:47 11.6 °C 11 °C 1019.2 hPa ESE 4.8 km/h 9.7 km/h 96 % 0 mm 0 W/m2
06:52 11.5 °C 10.7 °C 1019.2 hPa ESE 3.2 km/h 9.7 km/h 95 % 0 mm 5 W/m2
06:57 11.4 °C 10.6 °C 1019.2 hPa SE 1.6 km/h 9.7 km/h 95 % 0 mm 7 W/m2
07:02 11.4 °C 10.6 °C 1019.2 hPa SE 3.2 km/h 9.7 km/h 95 % 0 mm 11 W/m2
07:07 11.4 °C 10.6 °C 1019.2 hPa SE 3.2 km/h 8 km/h 95 % 0 mm 16 W/m2
07:12 11.3 °C 10.6 °C 1019.2 hPa SE 4.8 km/h 11.3 km/h 95 % 0 mm 21 W/m2
07:17 11.4 °C 10.8 °C 1019.5 hPa SE 8 km/h 11.3 km/h 96 % 0 mm 25 W/m2
07:22 11.5 °C 10.9 °C 1019.2 hPa SE 8 km/h 12.9 km/h 96 % 0 mm 28 W/m2
07:27 11.6 °C 11 °C 1019.2 hPa SE 8 km/h 12.9 km/h 96 % 0 mm 35 W/m2
07:32 11.6 °C 11 °C 1019.2 hPa SSE 8 km/h 14.5 km/h 96 % 0 mm 47 W/m2
07:37 11.7 °C 11.1 °C 1019.2 hPa SSE 9.7 km/h 14.5 km/h 96 % 0 mm 40 W/m2
07:42 11.8 °C 11.2 °C 1019.2 hPa SSE 8 km/h 12.9 km/h 96 % 0 mm 49 W/m2
07:47 11.8 °C 11.2 °C 1019.5 hPa SSE 6.4 km/h 12.9 km/h 96 % 0 mm 109 W/m2
07:52 12 °C 11.4 °C 1019.2 hPa South 6.4 km/h 14.5 km/h 96 % 0 mm 114 W/m2
07:57 12.2 °C 11.6 °C 1019.5 hPa South 6.4 km/h 14.5 km/h 96 % 0 mm 113 W/m2
08:02 12.3 °C 11.7 °C 1019.5 hPa South 6.4 km/h 14.5 km/h 96 % 0 mm 128 W/m2
08:07 12.4 °C 11.8 °C 1019.5 hPa South 6.4 km/h 14.5 km/h 96 % 0 mm 141 W/m2
08:12 12.6 °C 12 °C 1019.5 hPa South 4.8 km/h 11.3 km/h 96 % 0 mm 155 W/m2
08:17 12.8 °C 12.2 °C 1019.5 hPa SSE 6.4 km/h 11.3 km/h 96 % 0 mm 163 W/m2
08:23 12.9 °C 12.3 °C 1019.5 hPa SSE 6.4 km/h 11.3 km/h 96 % 0 mm 179 W/m2
08:28 13.1 °C 12.5 °C 1019.5 hPa SSE 6.4 km/h 12.9 km/h 96 % 0 mm 202 W/m2
08:33 13.2 °C 12.4 °C 1019.5 hPa SSE 8 km/h 12.9 km/h 95 % 0 mm 192 W/m2
08:38 13.2 °C 12.4 °C 1019.5 hPa SSE 6.4 km/h 12.9 km/h 95 % 0 mm 162 W/m2
08:43 13.3 °C 12.3 °C 1019.5 hPa SSE 6.4 km/h 12.9 km/h 94 % 0 mm 118 W/m2
08:53 13.3 °C 12.3 °C 1019.9 hPa SE 8 km/h 12.9 km/h 94 % 0 mm 77 W/m2
08:58 13.3 °C 12.3 °C 1019.9 hPa SSE 8 km/h 16.1 km/h 94 % 0 mm 77 W/m2
09:03 13.4 °C 12.4 °C 1019.9 hPa SSE 6.4 km/h 16.1 km/h 94 % 0 mm 81 W/m2
09:08 13.4 °C 12.4 °C 1019.9 hPa SSE 6.4 km/h 12.9 km/h 94 % 0 mm 74 W/m2
09:13 13.4 °C 12.3 °C 1019.9 hPa South 6.4 km/h 16.1 km/h 93 % 0 mm 65 W/m2
09:18 13.5 °C 12.4 °C 1019.9 hPa South 6.4 km/h 16.1 km/h 93 % 0 mm 88 W/m2
09:23 13.6 °C 12.5 °C 1019.9 hPa SSW 6.4 km/h 12.9 km/h 93 % 0 mm 104 W/m2
09:28 13.6 °C 12.5 °C 1019.9 hPa SSW 8 km/h 16.1 km/h 93 % 0 mm 102 W/m2
09:33 13.7 °C 12.4 °C 1019.9 hPa South 9.7 km/h 16.1 km/h 92 % 0 mm 111 W/m2
09:38 13.7 °C 12.4 °C 1019.9 hPa South 9.7 km/h 16.1 km/h 92 % 0 mm 88 W/m2
09:43 13.8 °C 12.5 °C 1019.9 hPa South 8 km/h 14.5 km/h 92 % 0 mm 93 W/m2
09:48 13.8 °C 12.5 °C 1019.9 hPa South 6.4 km/h 12.9 km/h 92 % 0 mm 135 W/m2
09:53 13.9 °C 12.6 °C 1019.9 hPa SSW 4.8 km/h 14.5 km/h 92 % 0 mm 199 W/m2
09:58 14.1 °C 12.8 °C 1019.9 hPa SSW 8 km/h 14.5 km/h 92 % 0 mm 237 W/m2
10:03 14.2 °C 12.9 °C 1019.9 hPa South 6.4 km/h 12.9 km/h 92 % 0 mm 246 W/m2
10:08 14.4 °C 13.1 °C 1019.9 hPa South 6.4 km/h 12.9 km/h 92 % 0 mm 355 W/m2
10:13 14.7 °C 13.2 °C 1019.9 hPa South 6.4 km/h 12.9 km/h 91 % 0 mm 315 W/m2
10:18 14.9 °C 13.4 °C 1020.2 hPa SSE 8 km/h 14.5 km/h 91 % 0 mm 429 W/m2
10:23 15.1 °C 13.4 °C 1020.2 hPa SSE 9.7 km/h 14.5 km/h 90 % 0 mm 229 W/m2
10:29 15.2 °C 13.4 °C 1020.2 hPa SSE 9.7 km/h 14.5 km/h 89 % 0 mm 225 W/m2
10:34 15.3 °C 13.5 °C 1019.9 hPa SSE 8 km/h 14.5 km/h 89 % 0 mm 172 W/m2
10:39 15.3 °C 13.5 °C 1019.9 hPa SE 8 km/h 14.5 km/h 89 % 0 mm 218 W/m2
10:44 15.4 °C 13.4 °C 1019.9 hPa SSE 11.3 km/h 22.5 km/h 88 % 0 mm 399 W/m2
10:49 15.5 °C 13.5 °C 1019.9 hPa SSE 12.9 km/h 22.5 km/h 88 % 0 mm 316 W/m2
10:54 15.6 °C 13.4 °C 1019.9 hPa SSE 11.3 km/h 19.3 km/h 87 % 0 mm 306 W/m2
10:59 15.8 °C 13.7 °C 1019.9 hPa SSE 11.3 km/h 20.9 km/h 87 % 0 mm 410 W/m2
11:04 16 °C 13.8 °C 1019.9 hPa South 11.3 km/h 22.5 km/h 87 % 0 mm 555 W/m2
11:09 16.1 °C 13.8 °C 1019.9 hPa South 11.3 km/h 22.5 km/h 86 % 0 mm 225 W/m2
11:14 16.1 °C 13.6 °C 1019.9 hPa South 11.3 km/h 22.5 km/h 85 % 0 mm 227 W/m2
11:19 16 °C 13.5 °C 1019.9 hPa South 11.3 km/h 22.5 km/h 85 % 0 mm 195 W/m2
11:24 16 °C 13.7 °C 1019.9 hPa SSE 11.3 km/h 17.7 km/h 86 % 0 mm 195 W/m2
11:29 16 °C 13.5 °C 1019.5 hPa SSE 11.3 km/h 17.7 km/h 85 % 0 mm 128 W/m2
11:34 15.9 °C 13.4 °C 1019.5 hPa SSE 11.3 km/h 19.3 km/h 85 % 0 mm 102 W/m2
11:39 15.9 °C 13.4 °C 1019.5 hPa SSE 11.3 km/h 19.3 km/h 85 % 0 mm 109 W/m2
11:44 15.9 °C 13.6 °C 1019.5 hPa South 8 km/h 16.1 km/h 86 % 0 mm 114 W/m2
11:49 15.9 °C 13.4 °C 1019.5 hPa South 6.4 km/h 17.7 km/h 85 % 0 mm 144 W/m2
11:54 15.9 °C 13.6 °C 1019.5 hPa South 6.4 km/h 17.7 km/h 86 % 0 mm 125 W/m2
11:59 16 °C 13.7 °C 1019.5 hPa SSE 8 km/h 14.5 km/h 86 % 0 mm 116 W/m2
12:04 16 °C 13.7 °C 1019.5 hPa SE 9.7 km/h 14.5 km/h 86 % 0 mm 155 W/m2
12:09 16 °C 13.7 °C 1019.5 hPa SE 8 km/h 12.9 km/h 86 % 0 mm 176 W/m2
12:14 16.1 °C 13.8 °C 1019.5 hPa SE 8 km/h 14.5 km/h 86 % 0 mm 118 W/m2
12:19 16.1 °C 13.8 °C 1019.5 hPa SE 8 km/h 14.5 km/h 86 % 0 mm 102 W/m2
12:24 16.1 °C 13.8 °C 1019.5 hPa SE 9.7 km/h 16.1 km/h 86 % 0 mm 95 W/m2
12:29 16 °C 13.8 °C 1019.5 hPa SE 11.3 km/h 16.1 km/h 87 % 0 mm 144 W/m2
12:34 16 °C 13.8 °C 1019.5 hPa SSE 9.7 km/h 14.5 km/h 87 % 0 mm 100 W/m2
12:39 15.9 °C 13.7 °C 1019.5 hPa SSE 8 km/h 16.1 km/h 87 % 0 mm 105 W/m2
12:44 15.9 °C 13.7 °C 1019.5 hPa SSE 8 km/h 16.1 km/h 87 % 0 mm 65 W/m2
12:49 15.9 °C 13.7 °C 1019.5 hPa SE 8 km/h 11.3 km/h 87 % 0 mm 74 W/m2
12:54 15.9 °C 13.7 °C 1019.5 hPa SE 8 km/h 11.3 km/h 87 % 0 mm 130 W/m2
12:59 16 °C 13.8 °C 1019.5 hPa SE 6.4 km/h 11.3 km/h 87 % 0 mm 67 W/m2
13:04 16.1 °C 14.1 °C 1019.5 hPa SE 6.4 km/h 17.7 km/h 88 % 0 mm 56 W/m2
13:09 16 °C 13.8 °C 1019.5 hPa SE 8 km/h 17.7 km/h 87 % 0 mm 69 W/m2
13:14 16 °C 13.8 °C 1019.5 hPa SSE 8 km/h 14.5 km/h 87 % 0 mm 148 W/m2
13:19 16.1 °C 13.9 °C 1019.5 hPa SSE 6.4 km/h 16.1 km/h 87 % 0 mm 62 W/m2
13:24 16.1 °C 13.9 °C 1019.5 hPa SE 9.7 km/h 19.3 km/h 87 % 0 mm 63 W/m2
13:29 16.1 °C 13.9 °C 1019.5 hPa SE 12.9 km/h 19.3 km/h 87 % 0 mm 269 W/m2
13:34 16.1 °C 14.1 °C 1019.5 hPa SSE 11.3 km/h 19.3 km/h 88 % 0 mm 144 W/m2
13:39 16.2 °C 14.1 °C 1019.5 hPa SSE 11.3 km/h 19.3 km/h 87 % 0 mm 70 W/m2
13:44 16.2 °C 14.1 °C 1019.5 hPa SSE 12.9 km/h 19.3 km/h 87 % 0 mm 53 W/m2
13:49 16.1 °C 13.9 °C 1019.5 hPa SSE 14.5 km/h 22.5 km/h 87 % 0 mm 102 W/m2
13:54 16.1 °C 13.9 °C 1019.5 hPa SSE 12.9 km/h 22.5 km/h 87 % 0 mm 91 W/m2
13:59 16.1 °C 14.1 °C 1019.5 hPa SSE 11.3 km/h 19.3 km/h 88 % 0 mm 120 W/m2
14:04 16.1 °C 14.1 °C 1019.5 hPa SSE 9.7 km/h 19.3 km/h 88 % 0 mm 123 W/m2
14:09 16.1 °C 14.1 °C 1019.5 hPa SSE 9.7 km/h 17.7 km/h 88 % 0 mm 60 W/m2
14:14 16.1 °C 14.1 °C 1019.5 hPa SSE 9.7 km/h 16.1 km/h 88 % 0 mm 72 W/m2
14:20 16.1 °C 14.1 °C 1019.5 hPa SSE 9.7 km/h 17.7 km/h 88 % 0 mm 134 W/m2
14:25 16.1 °C 14.1 °C 1019.5 hPa SSE 9.7 km/h 17.7 km/h 88 % 0 mm 105 W/m2
14:30 16.1 °C 14.1 °C 1019.5 hPa SSE 8 km/h 14.5 km/h 88 % 0 mm 91 W/m2
14:35 16.1 °C 14.1 °C 1019.5 hPa SSE 9.7 km/h 16.1 km/h 88 % 0 mm 70 W/m2
14:40 16.1 °C 14.1 °C 1019.5 hPa SSE 9.7 km/h 16.1 km/h 88 % 0 mm 74 W/m2
14:45 16.1 °C 13.9 °C 1019.5 hPa SSE 8 km/h 16.1 km/h 87 % 0 mm 65 W/m2
14:50 16.2 °C 14.1 °C 1019.5 hPa SSE 6.4 km/h 16.1 km/h 87 % 0 mm 81 W/m2
14:55 16.2 °C 14.1 °C 1019.5 hPa SSE 6.4 km/h 11.3 km/h 87 % 0 mm 79 W/m2
15:00 16.2 °C 14.1 °C 1019.5 hPa SSE 6.4 km/h 12.9 km/h 87 % 0 mm 88 W/m2
15:05 16.2 °C 13.8 °C 1019.2 hPa SSW 9.7 km/h 20.9 km/h 86 % 0 mm 83 W/m2
15:10 16.2 °C 13.8 °C 1019.2 hPa SSW 11.3 km/h 20.9 km/h 86 % 0 mm 79 W/m2
15:15 16.2 °C 13.8 °C 1019.2 hPa SSW 11.3 km/h 19.3 km/h 86 % 0 mm 69 W/m2
15:20 16.2 °C 13.8 °C 1019.2 hPa SSW 11.3 km/h 19.3 km/h 86 % 0 mm 58 W/m2
15:25 16.2 °C 14.1 °C 1019.2 hPa SSW 9.7 km/h 14.5 km/h 87 % 0 mm 51 W/m2
15:30 16.2 °C 14.1 °C 1019.2 hPa South 8 km/h 14.5 km/h 87 % 0 mm 46 W/m2
15:35 16.2 °C 14.1 °C 1019.2 hPa South 6.4 km/h 14.5 km/h 87 % 0 mm 40 W/m2
15:40 16.1 °C 13.9 °C 1019.2 hPa South 6.4 km/h 14.5 km/h 87 % 0 mm 54 W/m2
15:45 16.1 °C 14.1 °C 1019.2 hPa South 9.7 km/h 17.7 km/h 88 % 0 mm 58 W/m2
15:50 16.1 °C 14.1 °C 1019.2 hPa South 9.7 km/h 17.7 km/h 88 % 0 mm 44 W/m2
15:55 15.9 °C 14.1 °C 1019.2 hPa South 9.7 km/h 19.3 km/h 89 % 0 mm 54 W/m2
16:00 15.7 °C 13.9 °C 1018.8 hPa SSW 11.3 km/h 20.9 km/h 89 % 0 mm 70 W/m2
16:05 15.7 °C 14.1 °C 1018.8 hPa SSW 11.3 km/h 19.3 km/h 90 % 0 mm 146 W/m2
16:10 15.7 °C 14.1 °C 1018.8 hPa SSW 8 km/h 16.1 km/h 90 % 0 mm 186 W/m2
16:15 15.8 °C 14.2 °C 1018.8 hPa South 8 km/h 14.5 km/h 90 % 0 mm 155 W/m2
16:20 15.8 °C 14.2 °C 1018.8 hPa South 8 km/h 14.5 km/h 90 % 0 mm 165 W/m2
16:25 15.9 °C 14.3 °C 1018.8 hPa South 8 km/h 14.5 km/h 90 % 0 mm 188 W/m2
16:30 15.9 °C 14.3 °C 1018.8 hPa SSE 9.7 km/h 16.1 km/h 90 % 0 mm 144 W/m2
16:35 16.1 °C 14.3 °C 1018.8 hPa SSE 11.3 km/h 17.7 km/h 89 % 0 mm 121 W/m2
16:40 16.2 °C 14.2 °C 1018.8 hPa SSE 11.3 km/h 17.7 km/h 88 % 0 mm 120 W/m2
16:45 16.3 °C 14.3 °C 1018.8 hPa South 8 km/h 14.5 km/h 88 % 0 mm 100 W/m2
16:50 16.3 °C 14.1 °C 1018.8 hPa SSE 8 km/h 16.1 km/h 87 % 0 mm 77 W/m2
16:55 16.4 °C 14.1 °C 1018.8 hPa SSE 11.3 km/h 16.1 km/h 86 % 0 mm 63 W/m2
17:00 16.4 °C 14.1 °C 1018.8 hPa SSE 9.7 km/h 16.1 km/h 86 % 0 mm 83 W/m2
17:05 16.5 °C 14.2 °C 1018.8 hPa SE 9.7 km/h 16.1 km/h 86 % 0 mm 76 W/m2
17:10 16.5 °C 14.2 °C 1018.8 hPa SSE 8 km/h 16.1 km/h 86 % 0 mm 63 W/m2
17:15 16.5 °C 14.2 °C 1018.8 hPa SSE 8 km/h 16.1 km/h 86 % 0 mm 76 W/m2
17:20 16.5 °C 14.2 °C 1018.8 hPa SSE 8 km/h 16.1 km/h 86 % 0 mm 86 W/m2
17:25 16.5 °C 14.2 °C 1018.8 hPa SSE 8 km/h 14.5 km/h 86 % 0 mm 54 W/m2
17:30 16.6 °C 14.2 °C 1018.8 hPa SSE 6.4 km/h 12.9 km/h 86 % 0 mm 86 W/m2
17:35 16.6 °C 14.2 °C 1018.8 hPa SE 4.8 km/h 12.9 km/h 86 % 0 mm 69 W/m2
17:40 16.6 °C 14.1 °C 1018.8 hPa SE 4.8 km/h 11.3 km/h 85 % 0 mm 56 W/m2
17:45 16.6 °C 14.1 °C 1018.8 hPa SE 6.4 km/h 12.9 km/h 85 % 0 mm 56 W/m2
17:50 16.6 °C 14.1 °C 1018.8 hPa SE 8 km/h 14.5 km/h 85 % 0 mm 42 W/m2
17:55 16.6 °C 14.1 °C 1018.8 hPa SE 8 km/h 14.5 km/h 85 % 0 mm 44 W/m2
18:00 16.6 °C 13.9 °C 1018.8 hPa SE 8 km/h 14.5 km/h 84 % 0 mm 39 W/m2
18:02 16.6 °C 13.9 °C 1018.8 hPa SE 8 km/h 14.5 km/h 84 % 0 mm 40 W/m2
18:07 16.5 °C 13.9 °C 1018.8 hPa SE 6.4 km/h 11.3 km/h 85 % 0 mm 26 W/m2
18:12 16.4 °C 13.9 °C 1018.8 hPa ESE 4.8 km/h 11.3 km/h 85 % 0 mm 21 W/m2
18:17 16.4 °C 13.9 °C 1018.8 hPa ESE 3.2 km/h 8 km/h 85 % 0 mm 19 W/m2
18:22 16.3 °C 13.9 °C 1018.8 hPa ESE 3.2 km/h 8 km/h 86 % 0 mm 18 W/m2
18:27 16.2 °C 13.8 °C 1018.8 hPa ESE 1.6 km/h 8 km/h 86 % 0 mm 16 W/m2
18:32 16.1 °C 13.8 °C 1018.8 hPa ESE 1.6 km/h 6.4 km/h 86 % 0 mm 12 W/m2
18:37 15.9 °C 13.7 °C 1018.8 hPa ESE 1.6 km/h 6.4 km/h 87 % 0 mm 12 W/m2
18:42 15.8 °C 13.7 °C 1018.8 hPa ESE 3.2 km/h 6.4 km/h 87 % 0 mm 11 W/m2
18:47 15.8 °C 13.7 °C 1018.8 hPa SE 3.2 km/h 8 km/h 87 % 0 mm 9 W/m2
18:52 15.8 °C 13.7 °C 1018.5 hPa SE 3.2 km/h 8 km/h 87 % 0 mm 7 W/m2
18:57 15.7 °C 13.6 °C 1018.5 hPa ESE 3.2 km/h 6.4 km/h 87 % 0 mm 0 W/m2
19:02 15.7 °C 13.6 °C 1018.5 hPa ESE 3.2 km/h 8 km/h 87 % 0 mm 0 W/m2
19:04 15.7 °C 13.6 °C 1018.5 hPa ESE 3.2 km/h 8 km/h 87 % 0 mm 0 W/m2
19:09 15.6 °C 13.4 °C 1018.5 hPa ESE 3.2 km/h 8 km/h 87 % 0 mm 0 W/m2
19:14 15.6 °C 13.4 °C 1018.5 hPa ESE 3.2 km/h 6.4 km/h 87 % 0 mm 0 W/m2
19:19 15.5 °C 13.3 °C 1018.5 hPa ESE 3.2 km/h 8 km/h 87 % 0 mm 0 W/m2
19:24 15.4 °C 13.4 °C 1018.5 hPa ESE 3.2 km/h 8 km/h 88 % 0 mm 0 W/m2
19:29 15.3 °C 13.3 °C 1018.5 hPa ESE 3.2 km/h 6.4 km/h 88 % 0 mm 0 W/m2
19:34 15.2 °C 13.2 °C 1018.5 hPa ESE 3.2 km/h 6.4 km/h 88 % 0 mm 0 W/m2
19:40 15.2 °C 13.2 °C 1018.5 hPa ESE 1.6 km/h 6.4 km/h 88 % 0 mm 0 W/m2
19:44 15.1 °C 13.3 °C 1018.5 hPa ESE 1.6 km/h 6.4 km/h 89 % 0 mm 0 W/m2
19:49 15.1 °C 13.3 °C 1018.5 hPa ESE 1.6 km/h 8 km/h 89 % 0 mm 0 W/m2
19:54 15.1 °C 13.3 °C 1018.5 hPa ESE 1.6 km/h 9.7 km/h 89 % 0 mm 0 W/m2
20:00 15 °C 13.2 °C 1018.5 hPa ESE 1.6 km/h 9.7 km/h 89 % 0 mm 0 W/m2
20:04 15 °C 13.2 °C 1018.5 hPa ESE 3.2 km/h 9.7 km/h 89 % 0 mm 0 W/m2
20:10 14.9 °C 13.1 °C 1018.5 hPa ESE 3.2 km/h 9.7 km/h 89 % 0 mm 0 W/m2
20:15 14.9 °C 13.1 °C 1018.5 hPa ESE 3.2 km/h 9.7 km/h 89 % 0 mm 0 W/m2
20:20 14.8 °C 13 °C 1018.8 hPa ESE 3.2 km/h 9.7 km/h 89 % 0 mm 0 W/m2
20:25 14.8 °C 13 °C 1018.8 hPa ESE 3.2 km/h 12.9 km/h 89 % 0 mm 0 W/m2
20:30 14.7 °C 12.9 °C 1018.8 hPa SE 3.2 km/h 12.9 km/h 89 % 0 mm 0 W/m2
20:35 14.7 °C 12.9 °C 1018.8 hPa SE 3.2 km/h 9.7 km/h 89 % 0 mm 0 W/m2
20:40 14.7 °C 12.9 °C 1018.5 hPa SE 6.4 km/h 12.9 km/h 89 % 0 mm 0 W/m2
20:45 14.7 °C 12.7 °C 1018.8 hPa SE 8 km/h 12.9 km/h 88 % 0 mm 0 W/m2
20:50 14.7 °C 12.7 °C 1018.8 hPa SSE 8 km/h 12.9 km/h 88 % 0 mm 0 W/m2
20:55 14.7 °C 12.7 °C 1018.8 hPa SSE 8 km/h 12.9 km/h 88 % 0 mm 0 W/m2
21:00 14.8 °C 12.7 °C 1018.8 hPa SE 8 km/h 12.9 km/h 87 % 0 mm 0 W/m2
21:05 14.8 °C 12.7 °C 1018.8 hPa SE 6.4 km/h 12.9 km/h 87 % 0 mm 0 W/m2
21:10 14.7 °C 12.6 °C 1018.8 hPa SE 4.8 km/h 14.5 km/h 87 % 0 mm 0 W/m2
21:15 14.7 °C 12.6 °C 1018.8 hPa SE 4.8 km/h 14.5 km/h 87 % 0 mm 0 W/m2
21:20 14.7 °C 12.6 °C 1018.8 hPa SE 3.2 km/h 11.3 km/h 87 % 0 mm 0 W/m2
21:25 14.6 °C 12.4 °C 1018.8 hPa SSE 3.2 km/h 11.3 km/h 87 % 0 mm 0 W/m2
21:30 14.6 °C 12.3 °C 1018.8 hPa SSE 4.8 km/h 14.5 km/h 86 % 0 mm 0 W/m2
21:35 14.6 °C 12.3 °C 1018.8 hPa South 8 km/h 16.1 km/h 86 % 0 mm 0 W/m2
21:40 14.6 °C 12.3 °C 1018.8 hPa SSE 9.7 km/h 17.7 km/h 86 % 0 mm 0 W/m2
21:45 14.6 °C 12.3 °C 1018.8 hPa SE 11.3 km/h 17.7 km/h 86 % 0 mm 0 W/m2
21:50 14.5 °C 12.2 °C 1018.8 hPa SSE 9.7 km/h 17.7 km/h 86 % 0 mm 0 W/m2
21:55 14.5 °C 12 °C 1018.8 hPa SSE 8 km/h 14.5 km/h 85 % 0 mm 0 W/m2
22:00 14.4 °C 11.9 °C 1018.8 hPa South 8 km/h 16.1 km/h 85 % 0 mm 0 W/m2
22:05 14.4 °C 11.9 °C 1018.8 hPa SSE 9.7 km/h 17.7 km/h 85 % 0 mm 0 W/m2
22:10 14.4 °C 11.9 °C 1018.8 hPa SSE 9.7 km/h 17.7 km/h 85 % 0 mm 0 W/m2
22:15 14.4 °C 11.7 °C 1019.2 hPa SSE 9.7 km/h 19.3 km/h 84 % 0 mm 0 W/m2
22:20 14.3 °C 11.6 °C 1019.2 hPa SE 9.7 km/h 19.3 km/h 84 % 0 mm 0 W/m2
22:25 14.3 °C 11.6 °C 1019.2 hPa SSE 9.7 km/h 14.5 km/h 84 % 0 mm 0 W/m2
22:31 14.3 °C 11.6 °C 1019.2 hPa SSE 9.7 km/h 14.5 km/h 84 % 0 mm 0 W/m2
22:36 14.2 °C 11.6 °C 1019.2 hPa SSE 11.3 km/h 20.9 km/h 84 % 0 mm 0 W/m2
22:41 14.3 °C 11.4 °C 1019.2 hPa SSE 11.3 km/h 20.9 km/h 83 % 0 mm 0 W/m2
22:46 14.2 °C 11.3 °C 1019.2 hPa SSE 8 km/h 14.5 km/h 83 % 0 mm 0 W/m2
22:51 14.2 °C 11.3 °C 1019.2 hPa South 8 km/h 17.7 km/h 83 % 0 mm 0 W/m2
22:56 14.2 °C 11.3 °C 1019.2 hPa South 9.7 km/h 17.7 km/h 83 % 0 mm 0 W/m2
23:01 14.2 °C 11.3 °C 1019.2 hPa South 9.7 km/h 16.1 km/h 83 % 0 mm 0 W/m2
23:06 14.2 °C 11.3 °C 1019.2 hPa South 9.7 km/h 17.7 km/h 83 % 0 mm 0 W/m2
23:11 14.2 °C 11.2 °C 1019.2 hPa South 11.3 km/h 20.9 km/h 82 % 0 mm 0 W/m2
23:16 14.2 °C 11.2 °C 1019.2 hPa South 9.7 km/h 20.9 km/h 82 % 0 mm 0 W/m2
23:21 14.2 °C 11.2 °C 1019.2 hPa South 8 km/h 16.1 km/h 82 % 0 mm 0 W/m2
23:26 14.2 °C 11.2 °C 1019.2 hPa South 6.4 km/h 16.1 km/h 82 % 0 mm 0 W/m2
23:31 14.1 °C 11.1 °C 1019.2 hPa South 6.4 km/h 16.1 km/h 82 % 0 mm 0 W/m2
23:36 14 °C 11 °C 1019.2 hPa South 4.8 km/h 12.9 km/h 82 % 0 mm 0 W/m2
23:41 14 °C 11 °C 1019.2 hPa South 4.8 km/h 12.9 km/h 82 % 0 mm 0 W/m2
23:47 13.9 °C 10.9 °C 1019.2 hPa South 8 km/h 14.5 km/h 82 % 0 mm 0 W/m2
23:52 13.9 °C 10.9 °C 1019.2 hPa SSE 8 km/h 16.1 km/h 82 % 0 mm 0 W/m2
23:57 13.9 °C 10.9 °C 1019.2 hPa SSE 8 km/h 16.1 km/h 82 % 0 mm 0 W/m2
Delerius-Weather
Compliments of Weather Underground - 2.25 mb

Data updates at regular intervals.